sensor_id;sensor_type;location;lat;lon;timestamp;temperature;humidity
64652;HTU21D;51062;45.120;37.660;2022-09-11T00:00:51;13.47;46.20
64652;HTU21D;51062;45.120;37.660;2022-09-11T00:03:19;13.43;46.22
64652;HTU21D;51062;45.120;37.660;2022-09-11T00:05:46;13.40;46.27
64652;HTU21D;51062;45.120;37.660;2022-09-11T00:08:14;13.36;46.35
64652;HTU21D;51062;45.120;37.660;2022-09-11T00:10:44;13.32;46.42
64652;HTU21D;51062;45.120;37.660;2022-09-11T00:13:17;13.27;46.47
64652;HTU21D;51062;45.120;37.660;2022-09-11T00:15:49;13.25;46.52
64652;HTU21D;51062;45.120;37.660;2022-09-11T00:18:18;13.22;46.59
64652;HTU21D;51062;45.120;37.660;2022-09-11T00:20:48;13.17;46.66
64652;HTU21D;51062;45.120;37.660;2022-09-11T00:23:16;13.11;46.77
64652;HTU21D;51062;45.120;37.660;2022-09-11T00:25:43;13.06;46.86
64652;HTU21D;51062;45.120;37.660;2022-09-11T00:28:29;13.02;46.93
64652;HTU21D;51062;45.120;37.660;2022-09-11T00:31:01;12.99;46.92
64652;HTU21D;51062;45.120;37.660;2022-09-11T00:33:28;12.96;46.96
64652;HTU21D;51062;45.120;37.660;2022-09-11T00:35:57;12.95;47.02
64652;HTU21D;51062;45.120;37.660;2022-09-11T00:38:29;12.92;47.08
64652;HTU21D;51062;45.120;37.660;2022-09-11T00:40:57;12.92;47.08
64652;HTU21D;51062;45.120;37.660;2022-09-11T00:43:25;12.91;47.10
64652;HTU21D;51062;45.120;37.660;2022-09-11T00:46:01;12.89;47.18
64652;HTU21D;51062;45.120;37.660;2022-09-11T00:48:34;12.85;47.19
64652;HTU21D;51062;45.120;37.660;2022-09-11T00:51:02;12.81;47.21
64652;HTU21D;51062;45.120;37.660;2022-09-11T00:53:33;12.78;47.25
64652;HTU21D;51062;45.120;37.660;2022-09-11T00:56:03;12.74;47.28
64652;HTU21D;51062;45.120;37.660;2022-09-11T00:58:35;12.69;47.27
64652;HTU21D;51062;45.120;37.660;2022-09-11T01:01:03;12.65;47.25
64652;HTU21D;51062;45.120;37.660;2022-09-11T01:03:30;12.58;47.25
64652;HTU21D;51062;45.120;37.660;2022-09-11T01:05:57;12.52;47.28
64652;HTU21D;51062;45.120;37.660;2022-09-11T01:08:24;12.46;47.31
64652;HTU21D;51062;45.120;37.660;2022-09-11T01:29:55;12.02;47.96
64652;HTU21D;51062;45.120;37.660;2022-09-11T01:32:59;12.01;47.96
64652;HTU21D;51062;45.120;37.660;2022-09-11T01:38:22;12.02;47.89
64652;HTU21D;51062;45.120;37.660;2022-09-11T01:40:58;12.00;47.86
64652;HTU21D;51062;45.120;37.660;2022-09-11T01:43:29;12.00;47.85
64652;HTU21D;51062;45.120;37.660;2022-09-11T01:46:01;11.98;47.89
64652;HTU21D;51062;45.120;37.660;2022-09-11T01:48:43;11.93;48.08
64652;HTU21D;51062;45.120;37.660;2022-09-11T01:51:15;11.92;48.10
64652;HTU21D;51062;45.120;37.660;2022-09-11T01:53:46;11.92;48.19
64652;HTU21D;51062;45.120;37.660;2022-09-11T01:56:23;11.90;48.24
64652;HTU21D;51062;45.120;37.660;2022-09-11T01:59:00;11.89;48.29
64652;HTU21D;51062;45.120;37.660;2022-09-11T02:01:32;11.87;48.31
64652;HTU21D;51062;45.120;37.660;2022-09-11T02:04:05;11.87;48.31
64652;HTU21D;51062;45.120;37.660;2022-09-11T02:06:44;11.87;48.27
64652;HTU21D;51062;45.120;37.660;2022-09-11T02:09:14;11.86;48.25
64652;HTU21D;51062;45.120;37.660;2022-09-11T02:11:42;11.87;48.27
64652;HTU21D;51062;45.120;37.660;2022-09-11T02:14:29;11.88;48.31
64652;HTU21D;51062;45.120;37.660;2022-09-11T02:19:52;11.92;48.29
64652;HTU21D;51062;45.120;37.660;2022-09-11T02:22:21;11.92;48.41
64652;HTU21D;51062;45.120;37.660;2022-09-11T02:24:47;11.93;48.43
64652;HTU21D;51062;45.120;37.660;2022-09-11T02:27:18;11.93;48.42
64652;HTU21D;51062;45.120;37.660;2022-09-11T02:29:47;11.96;48.41
64652;HTU21D;51062;45.120;37.660;2022-09-11T02:32:14;11.96;48.41
64652;HTU21D;51062;45.120;37.660;2022-09-11T02:34:42;11.96;48.41
64652;HTU21D;51062;45.120;37.660;2022-09-11T02:37:17;11.98;48.41
64652;HTU21D;51062;45.120;37.660;2022-09-11T02:39:58;11.98;48.41
64652;HTU21D;51062;45.120;37.660;2022-09-11T02:50:28;11.97;48.48
64652;HTU21D;51062;45.120;37.660;2022-09-11T02:58:48;11.98;48.48
64652;HTU21D;51062;45.120;37.660;2022-09-11T03:01:15;11.98;48.56
64652;HTU21D;51062;45.120;37.660;2022-09-11T03:03:44;11.99;48.40
64652;HTU21D;51062;45.120;37.660;2022-09-11T03:06:18;12.00;48.41
64652;HTU21D;51062;45.120;37.660;2022-09-11T03:08:45;12.03;48.53
64652;HTU21D;51062;45.120;37.660;2022-09-11T03:11:11;12.04;48.34
64652;HTU21D;51062;45.120;37.660;2022-09-11T03:13:42;12.11;48.41
64652;HTU21D;51062;45.120;37.660;2022-09-11T03:16:10;12.26;48.36
64652;HTU21D;51062;45.120;37.660;2022-09-11T03:18:37;12.46;48.28
64652;HTU21D;51062;45.120;37.660;2022-09-11T03:21:04;12.71;48.18
64652;HTU21D;51062;45.120;37.660;2022-09-11T03:23:31;12.96;47.99
64652;HTU21D;51062;45.120;37.660;2022-09-11T03:25:58;13.27;47.88
64652;HTU21D;51062;45.120;37.660;2022-09-11T03:28:24;13.63;47.67
64652;HTU21D;51062;45.120;37.660;2022-09-11T03:30:51;13.95;47.42
64652;HTU21D;51062;45.120;37.660;2022-09-11T03:33:24;14.24;47.34
64652;HTU21D;51062;45.120;37.660;2022-09-11T03:35:51;14.64;47.31
64652;HTU21D;51062;45.120;37.660;2022-09-11T03:38:19;15.04;47.26
64652;HTU21D;51062;45.120;37.660;2022-09-11T03:40:45;15.45;47.17
64652;HTU21D;51062;45.120;37.660;2022-09-11T03:43:11;15.82;47.06
64652;HTU21D;51062;45.120;37.660;2022-09-11T03:45:38;16.22;46.87
64652;HTU21D;51062;45.120;37.660;2022-09-11T03:48:04;16.64;46.61
64652;HTU21D;51062;45.120;37.660;2022-09-11T03:50:31;17.01;46.31
64652;HTU21D;51062;45.120;37.660;2022-09-11T03:52:58;17.33;46.21
64652;HTU21D;51062;45.120;37.660;2022-09-11T03:55:26;17.72;45.96
64652;HTU21D;51062;45.120;37.660;2022-09-11T03:57:53;18.12;45.80
64652;HTU21D;51062;45.120;37.660;2022-09-11T04:00:19;18.57;45.41
64652;HTU21D;51062;45.120;37.660;2022-09-11T04:02:53;19.03;45.00
64652;HTU21D;51062;45.120;37.660;2022-09-11T04:05:41;19.51;44.58
64652;HTU21D;51062;45.120;37.660;2022-09-11T04:08:11;19.82;44.26
64652;HTU21D;51062;45.120;37.660;2022-09-11T04:10:39;20.06;44.22
64652;HTU21D;51062;45.120;37.660;2022-09-11T04:13:07;20.37;44.07
64652;HTU21D;51062;45.120;37.660;2022-09-11T04:15:34;20.63;43.92
64652;HTU21D;51062;45.120;37.660;2022-09-11T04:18:05;20.94;43.69
64652;HTU21D;51062;45.120;37.660;2022-09-11T04:20:33;21.23;43.34
64652;HTU21D;51062;45.120;37.660;2022-09-11T04:22:59;21.38;43.01
64652;HTU21D;51062;45.120;37.660;2022-09-11T04:25:25;21.34;42.90
64652;HTU21D;51062;45.120;37.660;2022-09-11T04:27:52;21.40;43.05
64652;HTU21D;51062;45.120;37.660;2022-09-11T04:30:20;21.46;43.09
64652;HTU21D;51062;45.120;37.660;2022-09-11T04:32:48;21.44;43.02
64652;HTU21D;51062;45.120;37.660;2022-09-11T04:35:15;21.31;42.95
64652;HTU21D;51062;45.120;37.660;2022-09-11T04:37:49;21.09;43.11
64652;HTU21D;51062;45.120;37.660;2022-09-11T04:40:16;21.06;43.10
64652;HTU21D;51062;45.120;37.660;2022-09-11T04:42:44;21.06;43.06
64652;HTU21D;51062;45.120;37.660;2022-09-11T04:45:10;21.18;42.88
64652;HTU21D;51062;45.120;37.660;2022-09-11T04:47:36;21.35;42.89
64652;HTU21D;51062;45.120;37.660;2022-09-11T04:50:02;21.37;42.63
64652;HTU21D;51062;45.120;37.660;2022-09-11T04:52:28;21.20;42.69
64652;HTU21D;51062;45.120;37.660;2022-09-11T04:54:55;21.13;42.83
64652;HTU21D;51062;45.120;37.660;2022-09-11T04:57:21;20.95;42.60
64652;HTU21D;51062;45.120;37.660;2022-09-11T04:59:48;20.72;42.78
64652;HTU21D;51062;45.120;37.660;2022-09-11T05:02:17;20.72;42.74
64652;HTU21D;51062;45.120;37.660;2022-09-11T05:04:48;20.75;42.49
64652;HTU21D;51062;45.120;37.660;2022-09-11T05:07:14;20.56;42.27
64652;HTU21D;51062;45.120;37.660;2022-09-11T05:09:43;20.26;42.35
64652;HTU21D;51062;45.120;37.660;2022-09-11T05:12:10;19.85;42.59
64652;HTU21D;51062;45.120;37.660;2022-09-11T05:14:36;19.66;43.20
64652;HTU21D;51062;45.120;37.660;2022-09-11T05:17:04;19.98;43.48
64652;HTU21D;51062;45.120;37.660;2022-09-11T05:19:35;20.63;43.13
64652;HTU21D;51062;45.120;37.660;2022-09-11T05:22:01;20.93;42.28
64652;HTU21D;51062;45.120;37.660;2022-09-11T05:24:29;21.01;42.30
64652;HTU21D;51062;45.120;37.660;2022-09-11T05:26:56;21.30;42.09
64652;HTU21D;51062;45.120;37.660;2022-09-11T05:29:24;21.65;41.61
64652;HTU21D;51062;45.120;37.660;2022-09-11T05:32:01;21.95;41.52
64652;HTU21D;51062;45.120;37.660;2022-09-11T05:34:28;22.14;40.78
64652;HTU21D;51062;45.120;37.660;2022-09-11T05:36:56;22.10;40.73
64652;HTU21D;51062;45.120;37.660;2022-09-11T05:39:25;21.93;40.81
64652;HTU21D;51062;45.120;37.660;2022-09-11T05:41:53;21.57;40.51
64652;HTU21D;51062;45.120;37.660;2022-09-11T05:44:22;21.09;41.03
64652;HTU21D;51062;45.120;37.660;2022-09-11T05:46:50;20.71;41.40
64652;HTU21D;51062;45.120;37.660;2022-09-11T05:49:37;20.36;41.70
64652;HTU21D;51062;45.120;37.660;2022-09-11T05:52:03;20.25;42.01
64652;HTU21D;51062;45.120;37.660;2022-09-11T05:54:32;20.37;42.12
64652;HTU21D;51062;45.120;37.660;2022-09-11T05:57:01;20.66;41.83
64652;HTU21D;51062;45.120;37.660;2022-09-11T05:59:30;21.03;41.66
64652;HTU21D;51062;45.120;37.660;2022-09-11T06:01:57;21.62;41.40
64652;HTU21D;51062;45.120;37.660;2022-09-11T06:04:36;21.99;40.81
64652;HTU21D;51062;45.120;37.660;2022-09-11T06:07:02;22.06;40.60
64652;HTU21D;51062;45.120;37.660;2022-09-11T06:09:29;22.02;40.39
64652;HTU21D;51062;45.120;37.660;2022-09-11T06:11:55;21.87;40.60
64652;HTU21D;51062;45.120;37.660;2022-09-11T06:14:22;21.89;40.84
64652;HTU21D;51062;45.120;37.660;2022-09-11T06:16:49;21.90;40.64
64652;HTU21D;51062;45.120;37.660;2022-09-11T06:19:16;21.81;40.55
64652;HTU21D;51062;45.120;37.660;2022-09-11T06:21:44;21.67;40.78
64652;HTU21D;51062;45.120;37.660;2022-09-11T06:24:22;21.73;40.78
64652;HTU21D;51062;45.120;37.660;2022-09-11T06:26:49;21.66;40.66
64652;HTU21D;51062;45.120;37.660;2022-09-11T06:29:16;21.47;40.73
64652;HTU21D;51062;45.120;37.660;2022-09-11T06:31:46;21.40;41.03
64652;HTU21D;51062;45.120;37.660;2022-09-11T06:34:17;21.54;41.36
64652;HTU21D;51062;45.120;37.660;2022-09-11T06:36:45;21.97;41.18
64652;HTU21D;51062;45.120;37.660;2022-09-11T06:39:11;22.31;40.86
64652;HTU21D;51062;45.120;37.660;2022-09-11T06:41:38;22.57;40.52
64652;HTU21D;51062;45.120;37.660;2022-09-11T06:44:11;22.81;40.37
64652;HTU21D;51062;45.120;37.660;2022-09-11T06:46:39;23.21;40.16
64652;HTU21D;51062;45.120;37.660;2022-09-11T06:49:07;23.64;39.75
64652;HTU21D;51062;45.120;37.660;2022-09-11T06:51:53;23.74;39.17
64652;HTU21D;51062;45.120;37.660;2022-09-11T06:54:20;23.27;39.22
64652;HTU21D;51062;45.120;37.660;2022-09-11T06:56:46;22.82;39.81
64652;HTU21D;51062;45.120;37.660;2022-09-11T06:59:13;22.93;40.30
64652;HTU21D;51062;45.120;37.660;2022-09-11T07:01:39;23.49;39.93
64652;HTU21D;51062;45.120;37.660;2022-09-11T07:04:06;24.14;39.45
64652;HTU21D;51062;45.120;37.660;2022-09-11T07:06:33;24.75;38.78
64652;HTU21D;51062;45.120;37.660;2022-09-11T07:09:01;25.24;38.42
64652;HTU21D;51062;45.120;37.660;2022-09-11T07:11:48;25.75;38.19
64652;HTU21D;51062;45.120;37.660;2022-09-11T07:14:14;26.03;37.61
64652;HTU21D;51062;45.120;37.660;2022-09-11T07:16:50;25.95;37.32
64652;HTU21D;51062;45.120;37.660;2022-09-11T07:19:18;25.65;37.63
64652;HTU21D;51062;45.120;37.660;2022-09-11T07:21:44;25.58;38.01
64652;HTU21D;51062;45.120;37.660;2022-09-11T07:24:10;25.65;37.74
64652;HTU21D;51062;45.120;37.660;2022-09-11T07:26:39;25.82;37.62
64652;HTU21D;51062;45.120;37.660;2022-09-11T07:29:28;25.72;37.35
64652;HTU21D;51062;45.120;37.660;2022-09-11T07:31:57;25.33;37.69
64652;HTU21D;51062;45.120;37.660;2022-09-11T07:34:23;24.92;38.03
64652;HTU21D;51062;45.120;37.660;2022-09-11T07:36:50;24.62;38.26
64652;HTU21D;51062;45.120;37.660;2022-09-11T07:39:17;24.39;38.50
64652;HTU21D;51062;45.120;37.660;2022-09-11T07:41:53;24.53;38.73
64652;HTU21D;51062;45.120;37.660;2022-09-11T07:44:24;25.02;38.43
64652;HTU21D;51062;45.120;37.660;2022-09-11T07:46:51;25.50;37.95
64652;HTU21D;51062;45.120;37.660;2022-09-11T07:49:18;25.60;37.38
64652;HTU21D;51062;45.120;37.660;2022-09-11T07:51:45;25.18;37.56
64652;HTU21D;51062;45.120;37.660;2022-09-11T07:54:14;25.07;38.08
64652;HTU21D;51062;45.120;37.660;2022-09-11T07:56:41;25.39;37.95
64652;HTU21D;51062;45.120;37.660;2022-09-11T07:59:10;25.81;37.45
64652;HTU21D;51062;45.120;37.660;2022-09-11T08:01:40;26.13;37.27
64652;HTU21D;51062;45.120;37.660;2022-09-11T08:04:11;26.38;36.93
64652;HTU21D;51062;45.120;37.660;2022-09-11T08:06:40;26.41;36.80
64652;HTU21D;51062;45.120;37.660;2022-09-11T08:09:14;26.34;36.67
64652;HTU21D;51062;45.120;37.660;2022-09-11T08:11:47;26.05;36.87
64652;HTU21D;51062;45.120;37.660;2022-09-11T08:14:15;25.58;37.40
64652;HTU21D;51062;45.120;37.660;2022-09-11T08:16:44;25.17;37.89
64652;HTU21D;51062;45.120;37.660;2022-09-11T08:19:16;24.82;38.32
64652;HTU21D;51062;45.120;37.660;2022-09-11T08:21:44;24.57;38.65
64652;HTU21D;51062;45.120;37.660;2022-09-11T08:24:14;24.41;38.89
64652;HTU21D;51062;45.120;37.660;2022-09-11T08:26:44;24.32;39.14
64652;HTU21D;51062;45.120;37.660;2022-09-11T08:29:11;24.28;39.25
64652;HTU21D;51062;45.120;37.660;2022-09-11T08:31:37;24.27;39.34
64652;HTU21D;51062;45.120;37.660;2022-09-11T08:34:03;24.23;39.46
64652;HTU21D;51062;45.120;37.660;2022-09-11T08:36:29;24.25;39.61
64652;HTU21D;51062;45.120;37.660;2022-09-11T08:38:58;24.27;39.71
64652;HTU21D;51062;45.120;37.660;2022-09-11T08:41:44;24.28;39.79
64652;HTU21D;51062;45.120;37.660;2022-09-11T08:47:36;24.44;39.92
64652;HTU21D;51062;45.120;37.660;2022-09-11T08:52:43;24.54;39.98
64652;HTU21D;51062;45.120;37.660;2022-09-11T08:55:13;24.62;40.03
64652;HTU21D;51062;45.120;37.660;2022-09-11T08:58:14;24.75;40.04
64652;HTU21D;51062;45.120;37.660;2022-09-11T09:03:49;24.88;40.06
64652;HTU21D;51062;45.120;37.660;2022-09-11T09:06:46;24.91;40.15
64652;HTU21D;51062;45.120;37.660;2022-09-11T09:09:47;24.99;40.16
64652;HTU21D;51062;45.120;37.660;2022-09-11T09:12:19;25.12;40.15
64652;HTU21D;51062;45.120;37.660;2022-09-11T09:15:05;25.21;40.18
64652;HTU21D;51062;45.120;37.660;2022-09-11T09:17:40;25.40;40.20
64652;HTU21D;51062;45.120;37.660;2022-09-11T09:20:16;25.51;40.09
64652;HTU21D;51062;45.120;37.660;2022-09-11T09:23:16;25.56;40.13
64652;HTU21D;51062;45.120;37.660;2022-09-11T09:25:41;25.61;40.14
64652;HTU21D;51062;45.120;37.660;2022-09-11T09:30:59;25.60;40.23
64652;HTU21D;51062;45.120;37.660;2022-09-11T09:33:34;25.72;40.26
64652;HTU21D;51062;45.120;37.660;2022-09-11T09:36:15;25.92;40.24
64652;HTU21D;51062;45.120;37.660;2022-09-11T09:38:44;26.10;40.20
64652;HTU21D;51062;45.120;37.660;2022-09-11T09:46:51;26.79;39.78
64652;HTU21D;51062;45.120;37.660;2022-09-11T09:49:28;26.97;39.67
64652;HTU21D;51062;45.120;37.660;2022-09-11T09:51:57;27.12;39.60
64652;HTU21D;51062;45.120;37.660;2022-09-11T09:54:27;27.27;39.58
64652;HTU21D;51062;45.120;37.660;2022-09-11T09:57:05;27.39;39.50
64652;HTU21D;51062;45.120;37.660;2022-09-11T09:59:56;27.47;39.46
64652;HTU21D;51062;45.120;37.660;2022-09-11T10:07:50;27.58;39.17
64652;HTU21D;51062;45.120;37.660;2022-09-11T10:10:25;27.57;39.08
64652;HTU21D;51062;45.120;37.660;2022-09-11T10:12:54;27.57;39.02
64652;HTU21D;51062;45.120;37.660;2022-09-11T10:15:21;27.56;39.01
64652;HTU21D;51062;45.120;37.660;2022-09-11T10:17:48;27.57;38.98
64652;HTU21D;51062;45.120;37.660;2022-09-11T10:22:44;27.65;38.84
64652;HTU21D;51062;45.120;37.660;2022-09-11T10:25:13;27.66;38.85
64652;HTU21D;51062;45.120;37.660;2022-09-11T10:27:57;27.67;38.78
64652;HTU21D;51062;45.120;37.660;2022-09-11T10:30:38;27.66;38.74
64652;HTU21D;51062;45.120;37.660;2022-09-11T10:33:52;27.69;38.68
64652;HTU21D;51062;45.120;37.660;2022-09-11T10:36:23;27.70;38.56
64652;HTU21D;51062;45.120;37.660;2022-09-11T10:38:50;27.73;38.40
64652;HTU21D;51062;45.120;37.660;2022-09-11T10:41:22;27.74;38.33
64652;HTU21D;51062;45.120;37.660;2022-09-11T10:46:38;27.82;38.27
64652;HTU21D;51062;45.120;37.660;2022-09-11T10:51:33;27.85;38.04
64652;HTU21D;51062;45.120;37.660;2022-09-11T10:56:29;27.85;37.88
64652;HTU21D;51062;45.120;37.660;2022-09-11T10:59:05;27.84;37.88
64652;HTU21D;51062;45.120;37.660;2022-09-11T11:01:35;27.86;37.85
64652;HTU21D;51062;45.120;37.660;2022-09-11T11:04:02;27.85;37.82
64652;HTU21D;51062;45.120;37.660;2022-09-11T11:06:44;27.82;37.79
64652;HTU21D;51062;45.120;37.660;2022-09-11T11:09:26;27.79;37.82
64652;HTU21D;51062;45.120;37.660;2022-09-11T11:12:25;27.82;37.83
64652;HTU21D;51062;45.120;37.660;2022-09-11T11:15:21;27.87;37.77
64652;HTU21D;51062;45.120;37.660;2022-09-11T11:21:11;27.90;37.62
64652;HTU21D;51062;45.120;37.660;2022-09-11T11:24:01;27.89;37.53
64652;HTU21D;51062;45.120;37.660;2022-09-11T11:29:17;27.84;37.46
64652;HTU21D;51062;45.120;37.660;2022-09-11T11:34:47;27.72;37.37
64652;HTU21D;51062;45.120;37.660;2022-09-11T11:37:18;27.68;37.45
64652;HTU21D;51062;45.120;37.660;2022-09-11T11:40:03;27.61;37.46
64652;HTU21D;51062;45.120;37.660;2022-09-11T11:42:40;27.59;37.48
64652;HTU21D;51062;45.120;37.660;2022-09-11T11:45:21;27.58;37.45
64652;HTU21D;51062;45.120;37.660;2022-09-11T11:47:48;27.58;37.37
64652;HTU21D;51062;45.120;37.660;2022-09-11T11:53:16;27.54;37.30
64652;HTU21D;51062;45.120;37.660;2022-09-11T11:55:57;27.52;37.29
64652;HTU21D;51062;45.120;37.660;2022-09-11T11:58:46;27.47;37.28
64652;HTU21D;51062;45.120;37.660;2022-09-11T12:01:31;27.43;37.28
64652;HTU21D;51062;45.120;37.660;2022-09-11T12:06:37;27.34;37.27
64652;HTU21D;51062;45.120;37.660;2022-09-11T12:09:04;27.27;37.29
64652;HTU21D;51062;45.120;37.660;2022-09-11T12:11:34;27.23;37.33
64652;HTU21D;51062;45.120;37.660;2022-09-11T12:14:01;27.21;37.33
64652;HTU21D;51062;45.120;37.660;2022-09-11T12:16:31;27.16;37.33
64652;HTU21D;51062;45.120;37.660;2022-09-11T12:19:02;27.11;37.33
64652;HTU21D;51062;45.120;37.660;2022-09-11T12:21:35;27.07;37.40
64652;HTU21D;51062;45.120;37.660;2022-09-11T12:26:28;27.06;37.46
64652;HTU21D;51062;45.120;37.660;2022-09-11T12:34:18;27.06;37.44
64652;HTU21D;51062;45.120;37.660;2022-09-11T12:36:55;27.05;37.39
64652;HTU21D;51062;45.120;37.660;2022-09-11T12:39:26;27.00;37.36
64652;HTU21D;51062;45.120;37.660;2022-09-11T12:42:44;26.97;37.37
64652;HTU21D;51062;45.120;37.660;2022-09-11T12:45:03;26.93;37.41
64652;HTU21D;51062;45.120;37.660;2022-09-11T12:47:35;26.89;37.41
64652;HTU21D;51062;45.120;37.660;2022-09-11T12:52:49;26.81;37.54
64652;HTU21D;51062;45.120;37.660;2022-09-11T12:55:32;26.81;37.54
64652;HTU21D;51062;45.120;37.660;2022-09-11T13:00:47;26.67;37.59
64652;HTU21D;51062;45.120;37.660;2022-09-11T13:03:20;26.55;37.66
64652;HTU21D;51062;45.120;37.660;2022-09-11T13:06:10;26.38;37.79
64652;HTU21D;51062;45.120;37.660;2022-09-11T13:08:49;26.24;37.92
64652;HTU21D;51062;45.120;37.660;2022-09-11T13:13:59;26.07;38.14
64652;HTU21D;51062;45.120;37.660;2022-09-11T13:16:27;26.10;38.22
64652;HTU21D;51062;45.120;37.660;2022-09-11T13:19:15;26.18;38.27
64652;HTU21D;51062;45.120;37.660;2022-09-11T13:21:46;26.28;38.31
64652;HTU21D;51062;45.120;37.660;2022-09-11T13:24:33;26.39;38.33
64652;HTU21D;51062;45.120;37.660;2022-09-11T13:27:07;26.52;38.31
64652;HTU21D;51062;45.120;37.660;2022-09-11T13:29:38;26.62;38.28
64652;HTU21D;51062;45.120;37.660;2022-09-11T13:32:12;26.72;38.27
64652;HTU21D;51062;45.120;37.660;2022-09-11T13:34:43;26.79;38.21
64652;HTU21D;51062;45.120;37.660;2022-09-11T13:37:17;26.81;38.22
64652;HTU21D;51062;45.120;37.660;2022-09-11T13:39:48;26.80;38.26
64652;HTU21D;51062;45.120;37.660;2022-09-11T13:42:16;26.76;38.30
64652;HTU21D;51062;45.120;37.660;2022-09-11T13:44:56;26.71;38.37
64652;HTU21D;51062;45.120;37.660;2022-09-11T13:47:26;26.64;38.40
64652;HTU21D;51062;45.120;37.660;2022-09-11T13:50:01;26.52;38.48
64652;HTU21D;51062;45.120;37.660;2022-09-11T13:52:32;26.43;38.59
64652;HTU21D;51062;45.120;37.660;2022-09-11T13:55:02;26.38;38.66
64652;HTU21D;51062;45.120;37.660;2022-09-11T13:57:29;26.34;38.73
64652;HTU21D;51062;45.120;37.660;2022-09-11T13:59:57;26.33;38.77
64652;HTU21D;51062;45.120;37.660;2022-09-11T14:07:34;26.34;38.80
64652;HTU21D;51062;45.120;37.660;2022-09-11T14:10:15;26.33;38.80
64652;HTU21D;51062;45.120;37.660;2022-09-11T14:15:49;26.21;38.85
64652;HTU21D;51062;45.120;37.660;2022-09-11T14:20:57;26.07;38.85
64652;HTU21D;51062;45.120;37.660;2022-09-11T14:23:26;26.02;38.82
64652;HTU21D;51062;45.120;37.660;2022-09-11T14:26:11;25.95;38.82
64652;HTU21D;51062;45.120;37.660;2022-09-11T14:31:36;25.74;38.79
64652;HTU21D;51062;45.120;37.660;2022-09-11T14:37:09;25.42;38.87
64652;HTU21D;51062;45.120;37.660;2022-09-11T14:39:53;25.27;38.93
64652;HTU21D;51062;45.120;37.660;2022-09-11T14:42:23;25.17;39.00
64652;HTU21D;51062;45.120;37.660;2022-09-11T14:44:50;25.12;39.02
64652;HTU21D;51062;45.120;37.660;2022-09-11T14:47:21;25.06;39.12
64652;HTU21D;51062;45.120;37.660;2022-09-11T14:49:50;25.01;39.22
64652;HTU21D;51062;45.120;37.660;2022-09-11T14:52:20;24.93;39.36
64652;HTU21D;51062;45.120;37.660;2022-09-11T14:54:47;24.90;39.52
64652;HTU21D;51062;45.120;37.660;2022-09-11T14:57:18;24.86;39.68
64652;HTU21D;51062;45.120;37.660;2022-09-11T14:59:45;24.77;39.83
64652;HTU21D;51062;45.120;37.660;2022-09-11T15:02:13;24.73;40.02
64652;HTU21D;51062;45.120;37.660;2022-09-11T15:04:40;24.66;40.14
64652;HTU21D;51062;45.120;37.660;2022-09-11T15:07:10;24.63;40.30
64652;HTU21D;51062;45.120;37.660;2022-09-11T15:09:36;24.59;40.39
64652;HTU21D;51062;45.120;37.660;2022-09-11T15:12:04;0.00;40.54
64652;HTU21D;51062;45.120;37.660;2022-09-11T15:14:31;24.49;40.67
64652;HTU21D;51062;45.120;37.660;2022-09-11T15:16:59;24.43;40.81
64652;HTU21D;51062;45.120;37.660;2022-09-11T15:19:27;24.38;40.93
64652;HTU21D;51062;45.120;37.660;2022-09-11T15:21:54;24.31;41.04
64652;HTU21D;51062;45.120;37.660;2022-09-11T15:24:25;24.24;41.19
64652;HTU21D;51062;45.120;37.660;2022-09-11T15:26:52;24.15;41.29
64652;HTU21D;51062;45.120;37.660;2022-09-11T15:29:22;24.06;41.42
64652;HTU21D;51062;45.120;37.660;2022-09-11T15:31:51;23.99;41.56
64652;HTU21D;51062;45.120;37.660;2022-09-11T15:34:21;23.90;41.70
64652;HTU21D;51062;45.120;37.660;2022-09-11T15:36:48;23.81;41.86
64652;HTU21D;51062;45.120;37.660;2022-09-11T15:39:18;23.74;41.99
64652;HTU21D;51062;45.120;37.660;2022-09-11T15:41:44;23.68;42.10
64652;HTU21D;51062;45.120;37.660;2022-09-11T15:44:24;23.60;42.23
64652;HTU21D;51062;45.120;37.660;2022-09-11T15:46:53;23.53;42.32
64652;HTU21D;51062;45.120;37.660;2022-09-11T15:49:21;23.47;42.42
64652;HTU21D;51062;45.120;37.660;2022-09-11T15:51:48;23.41;42.57
64652;HTU21D;51062;45.120;37.660;2022-09-11T15:54:15;23.36;42.68
64652;HTU21D;51062;45.120;37.660;2022-09-11T15:56:42;23.30;42.80
64652;HTU21D;51062;45.120;37.660;2022-09-11T15:59:10;23.25;42.95
64652;HTU21D;51062;45.120;37.660;2022-09-11T16:01:38;23.20;43.09
64652;HTU21D;51062;45.120;37.660;2022-09-11T16:04:10;23.14;43.20
64652;HTU21D;51062;45.120;37.660;2022-09-11T16:06:40;23.09;43.39
64652;HTU21D;51062;45.120;37.660;2022-09-11T16:09:13;23.02;43.54
64652;HTU21D;51062;45.120;37.660;2022-09-11T16:11:40;22.97;43.65
64652;HTU21D;51062;45.120;37.660;2022-09-11T16:14:10;22.92;43.79
64652;HTU21D;51062;45.120;37.660;2022-09-11T16:16:40;22.84;43.92
64652;HTU21D;51062;45.120;37.660;2022-09-11T16:19:06;22.80;44.04
64652;HTU21D;51062;45.120;37.660;2022-09-11T16:21:32;22.75;44.19
64652;HTU21D;51062;45.120;37.660;2022-09-11T16:23:58;22.69;44.35
64652;HTU21D;51062;45.120;37.660;2022-09-11T16:26:25;22.66;44.47
64652;HTU21D;51062;45.120;37.660;2022-09-11T16:28:52;22.63;44.57
64652;HTU21D;51062;45.120;37.660;2022-09-11T16:31:19;22.61;44.67
64652;HTU21D;51062;45.120;37.660;2022-09-11T16:33:45;22.60;44.78
64652;HTU21D;51062;45.120;37.660;2022-09-11T16:36:17;22.56;44.92
64652;HTU21D;51062;45.120;37.660;2022-09-11T16:38:44;22.54;45.01
64652;HTU21D;51062;45.120;37.660;2022-09-11T16:41:18;22.51;45.16
64652;HTU21D;51062;45.120;37.660;2022-09-11T16:43:47;22.48;45.22
64652;HTU21D;51062;45.120;37.660;2022-09-11T16:46:20;22.46;45.37
64652;HTU21D;51062;45.120;37.660;2022-09-11T16:48:47;22.41;45.47
64652;HTU21D;51062;45.120;37.660;2022-09-11T16:51:18;22.36;45.64
64652;HTU21D;51062;45.120;37.660;2022-09-11T16:53:46;22.29;45.83
64652;HTU21D;51062;45.120;37.660;2022-09-11T16:56:15;22.22;46.07
64652;HTU21D;51062;45.120;37.660;2022-09-11T16:58:41;22.16;46.28
64652;HTU21D;51062;45.120;37.660;2022-09-11T17:01:11;22.08;46.51
64652;HTU21D;51062;45.120;37.660;2022-09-11T17:03:41;22.03;46.68
64652;HTU21D;51062;45.120;37.660;2022-09-11T17:06:08;21.99;46.80
64652;HTU21D;51062;45.120;37.660;2022-09-11T17:08:35;21.94;46.99
64652;HTU21D;51062;45.120;37.660;2022-09-11T17:11:02;21.88;47.18
64652;HTU21D;51062;45.120;37.660;2022-09-11T17:13:30;21.82;47.40
64652;HTU21D;51062;45.120;37.660;2022-09-11T17:16:14;21.78;47.71
64652;HTU21D;51062;45.120;37.660;2022-09-11T17:18:44;21.75;47.79
64652;HTU21D;51062;45.120;37.660;2022-09-11T17:21:10;21.74;47.92
64652;HTU21D;51062;45.120;37.660;2022-09-11T17:23:37;21.72;48.03
64652;HTU21D;51062;45.120;37.660;2022-09-11T17:26:06;21.70;48.18